Time;durP1;ratioP1;P1;durP2;ratioP2;P2;SDS_P1;SDS_P2;PMS_P1;PMS_P2;Temp;Humidity;BMP_temperature;BMP_pressure;BME280_temperature;BME280_humidity;BME280_pressure;Samples;Min_cycle;Max_cycle;Signal;HPM_P1;HPM_P2
2022/04/21 00:02:33;;;;;;;5.65;3.00;;;;;;;;;;6268488;28;20576;-79
2022/04/21 00:05:35;;;;;;;5.65;3.17;;;;;;;;;;6264820;28;20060;-81
2022/04/21 00:08:37;;;;;;;4.70;3.20;;;;;;;;;;6266436;28;20099;-80
2022/04/21 00:11:39;;;;;;;6.72;3.55;;;;;;;;;;6263908;28;20373;-80
2022/04/21 00:14:40;;;;;;;5.93;3.13;;;;;;;;;;6264086;28;20094;-80
2022/04/21 00:17:43;;;;;;;9.20;4.10;;;;;;;;;;6287614;28;20068;-79
2022/04/21 00:20:44;;;;;;;5.68;3.58;;;;;;;;;;6289355;28;20048;-80
2022/04/21 00:23:46;;;;;;;6.15;3.80;;;;;;;;;;6305487;28;20102;-79
2022/04/21 00:26:47;;;;;;;6.47;3.70;;;;;;;;;;6270176;28;20179;-79
2022/04/21 00:29:49;;;;;;;5.00;3.38;;;;;;;;;;6262747;28;20076;-79
2022/04/21 00:32:52;;;;;;;6.05;3.45;;;;;;;;;;6270117;28;20052;-80
2022/04/21 00:35:58;;;;;;;7.05;3.50;;;;;;;;;;6288112;28;20135;-79
2022/04/21 00:39:00;;;;;;;6.13;3.67;;;;;;;;;;6281409;28;20053;-78
2022/04/21 00:42:02;;;;;;;6.90;3.90;;;;;;;;;;6309307;28;20049;-80
2022/04/21 00:45:04;;;;;;;5.38;4.00;;;;;;;;;;6293818;28;20141;-80
2022/04/21 00:48:06;;;;;;;5.13;4.03;;;;;;;;;;6287789;28;20068;-80
2022/04/21 00:51:08;;;;;;;5.28;3.85;;;;;;;;;;6289424;28;20045;-80
2022/04/21 00:54:10;;;;;;;7.70;3.63;;;;;;;;;;6289806;28;20182;-80
2022/04/21 00:57:12;;;;;;;6.45;3.28;;;;;;;;;;6270588;28;20132;-80
2022/04/21 01:00:15;;;;;;;6.35;3.38;;;;;;;;;;6263322;28;20052;-80
2022/04/21 01:03:17;;;;;;;7.30;3.83;;;;;;;;;;6263721;28;20072;-80
2022/04/21 01:06:18;;;;;;;6.72;3.35;;;;;;;;;;6265215;28;20151;-80
2022/04/21 01:09:20;;;;;;;6.32;3.85;;;;;;;;;;6265218;28;20541;-81
2022/04/21 01:12:23;;;;;;;5.47;3.75;;;;;;;;;;6267242;28;20760;-79
2022/04/21 01:15:25;;;;;;;5.68;3.60;;;;;;;;;;6265016;28;20309;-78
2022/04/21 01:18:28;;;;;;;7.00;3.85;;;;;;;;;;6264018;28;20044;-80
2022/04/21 01:21:29;;;;;;;5.43;3.92;;;;;;;;;;6261822;28;20520;-78
2022/04/21 01:24:31;;;;;;;4.90;3.88;;;;;;;;;;6266035;28;20103;-79
2022/04/21 01:27:35;;;;;;;5.70;3.38;;;;;;;;;;6264190;28;20476;-80
2022/04/21 01:30:38;;;;;;;11.35;4.22;;;;;;;;;;6264408;28;20044;-79
2022/04/21 01:33:40;;;;;;;7.53;3.85;;;;;;;;;;6265325;28;20048;-79
2022/04/21 01:43:23;;;;;;;7.60;3.72;;;;;;;;;;6264065;28;20175;-80
2022/04/21 01:46:25;;;;;;;4.65;3.67;;;;;;;;;;6260445;28;20501;-80
2022/04/21 01:49:27;;;;;;;6.13;3.97;;;;;;;;;;6263934;28;20041;-80
2022/04/21 01:52:28;;;;;;;4.97;3.70;;;;;;;;;;6265846;28;20099;-79
2022/04/21 01:55:30;;;;;;;7.10;4.05;;;;;;;;;;6268213;28;20545;-80
2022/04/21 01:58:31;;;;;;;6.35;3.72;;;;;;;;;;6269310;28;20090;-79
2022/04/21 02:01:33;;;;;;;4.78;3.88;;;;;;;;;;6253956;28;20045;-80
2022/04/21 02:04:35;;;;;;;7.15;3.60;;;;;;;;;;6242210;28;20060;-79
2022/04/21 02:07:42;;;;;;;9.32;4.00;;;;;;;;;;6264317;28;20539;-80
2022/04/21 02:10:43;;;;;;;8.77;3.88;;;;;;;;;;6278146;28;20121;-80
2022/04/21 02:13:45;;;;;;;6.65;4.25;;;;;;;;;;6291305;28;20159;-79
2022/04/21 02:16:46;;;;;;;5.95;3.92;;;;;;;;;;6275278;28;20540;-78
2022/04/21 02:19:48;;;;;;;7.72;4.28;;;;;;;;;;6262539;28;20147;-78
2022/04/21 02:22:49;;;;;;;8.05;4.45;;;;;;;;;;6263625;28;20134;-78
2022/04/21 02:25:51;;;;;;;6.03;3.70;;;;;;;;;;6264643;28;20112;-79
2022/04/21 02:28:53;;;;;;;9.25;4.22;;;;;;;;;;6266619;28;20045;-80
2022/04/21 02:31:54;;;;;;;5.75;3.80;;;;;;;;;;6266793;28;20131;-80
2022/04/21 02:34:57;;;;;;;5.47;3.78;;;;;;;;;;6288621;28;20067;-81
2022/04/21 02:37:58;;;;;;;5.00;3.53;;;;;;;;;;6290755;28;20102;-80
2022/04/21 02:41:01;;;;;;;5.88;3.60;;;;;;;;;;6279213;28;20100;-79
2022/04/21 02:44:02;;;;;;;6.47;4.25;;;;;;;;;;6282231;28;20118;-79
2022/04/21 02:47:06;;;;;;;6.28;4.15;;;;;;;;;;6292805;28;20086;-79
2022/04/21 02:50:08;;;;;;;6.38;3.97;;;;;;;;;;6292133;28;20100;-79
2022/04/21 02:53:11;;;;;;;5.43;3.60;;;;;;;;;;6287786;28;20041;-79
2022/04/21 02:59:34;;;;;;;5.15;3.80;;;;;;;;;;6287343;28;20211;-79
2022/04/21 03:02:36;;;;;;;8.15;4.10;;;;;;;;;;6269938;28;20067;-79
2022/04/21 03:05:38;;;;;;;7.00;4.18;;;;;;;;;;6266363;28;20517;-79
2022/04/21 03:08:39;;;;;;;7.15;3.88;;;;;;;;;;6291593;28;20060;-80
2022/04/21 03:11:41;;;;;;;6.63;3.90;;;;;;;;;;6269067;28;20456;-80
2022/04/21 03:14:42;;;;;;;7.38;4.15;;;;;;;;;;6264261;28;20171;-80
2022/04/21 03:17:44;;;;;;;6.78;3.83;;;;;;;;;;6265260;28;20134;-80
2022/04/21 03:24:24;;;;;;;5.05;4.07;;;;;;;;;;6271714;28;20095;-80
2022/04/21 03:27:29;;;;;;;6.47;3.90;;;;;;;;;;6267208;28;20109;-79
2022/04/21 03:30:30;;;;;;;6.15;3.75;;;;;;;;;;6263247;28;20040;-79
2022/04/21 03:33:32;;;;;;;6.47;4.05;;;;;;;;;;6263912;28;20075;-79
2022/04/21 03:36:34;;;;;;;6.47;4.03;;;;;;;;;;6265350;28;20666;-78
2022/04/21 03:39:38;;;;;;;8.73;4.53;;;;;;;;;;6264916;28;20041;-79
2022/04/21 03:42:40;;;;;;;9.63;4.25;;;;;;;;;;6262078;28;20528;-80
2022/04/21 03:45:42;;;;;;;5.03;3.80;;;;;;;;;;6278410;28;20045;-80
2022/04/21 03:48:43;;;;;;;5.85;3.95;;;;;;;;;;6284821;28;20056;-78
2022/04/21 03:51:45;;;;;;;6.03;4.50;;;;;;;;;;6268484;28;20064;-80
2022/04/21 03:54:47;;;;;;;7.15;4.45;;;;;;;;;;6305307;28;20048;-78
2022/04/21 03:57:48;;;;;;;9.75;4.57;;;;;;;;;;6294242;28;20036;-79
2022/04/21 04:00:50;;;;;;;6.38;3.92;;;;;;;;;;6287290;28;20045;-80
2022/04/21 04:03:52;;;;;;;5.78;4.10;;;;;;;;;;6283117;28;20051;-80
2022/04/21 04:13:34;;;;;;;6.18;4.15;;;;;;;;;;6274858;28;20048;-80
2022/04/21 04:16:36;;;;;;;5.82;4.40;;;;;;;;;;6286235;28;20162;-80
2022/04/21 04:19:38;;;;;;;5.57;4.50;;;;;;;;;;6294550;28;20559;-80
2022/04/21 04:22:40;;;;;;;9.00;4.47;;;;;;;;;;6293819;28;20070;-77
2022/04/21 04:25:42;;;;;;;7.63;4.65;;;;;;;;;;6284968;28;20048;-79
2022/04/21 04:28:44;;;;;;;6.50;4.07;;;;;;;;;;6262168;28;20498;-78
2022/04/21 04:31:45;;;;;;;6.22;4.07;;;;;;;;;;6272645;28;20104;-80
2022/04/21 04:34:47;;;;;;;7.45;4.82;;;;;;;;;;6290241;28;20444;-79
2022/04/21 04:37:49;;;;;;;8.27;4.72;;;;;;;;;;6286968;28;20097;-79
2022/04/21 04:40:50;;;;;;;7.70;4.70;;;;;;;;;;6263135;28;20056;-79
2022/04/21 04:43:52;;;;;;;13.25;5.80;;;;;;;;;;6264733;28;20120;-79
2022/04/21 04:46:55;;;;;;;13.90;7.13;;;;;;;;;;6276031;28;20670;-80
2022/04/21 04:49:56;;;;;;;11.97;5.87;;;;;;;;;;6287766;28;20453;-79
2022/04/21 04:52:59;;;;;;;9.75;6.65;;;;;;;;;;6288411;28;20059;-79
2022/04/21 04:56:01;;;;;;;8.07;6.50;;;;;;;;;;6271807;28;20124;-79
2022/04/21 04:59:03;;;;;;;8.30;5.40;;;;;;;;;;6281375;28;20109;-79
2022/04/21 05:02:05;;;;;;;11.65;6.00;;;;;;;;;;6266562;28;20571;-78
2022/04/21 05:05:08;;;;;;;9.60;5.85;;;;;;;;;;6258444;28;20057;-79
2022/04/21 05:08:09;;;;;;;8.60;5.73;;;;;;;;;;6262773;28;20116;-78
2022/04/21 05:11:11;;;;;;;8.15;5.07;;;;;;;;;;6259163;28;20105;-79
2022/04/21 05:14:14;;;;;;;8.80;5.20;;;;;;;;;;6263726;28;20052;-79
2022/04/21 05:17:16;;;;;;;8.77;5.40;;;;;;;;;;6263726;28;20049;-80
2022/04/21 05:20:17;;;;;;;7.82;5.15;;;;;;;;;;6262956;28;20098;-80
2022/04/21 05:23:21;;;;;;;9.82;5.82;;;;;;;;;;6261465;28;20083;-80
2022/04/21 05:26:24;;;;;;;10.75;6.25;;;;;;;;;;6239112;28;20175;-78
2022/04/21 05:32:48;;;;;;;9.00;5.78;;;;;;;;;;6268118;28;20045;-78
2022/04/21 05:35:51;;;;;;;12.70;5.68;;;;;;;;;;6268678;28;20107;-78
2022/04/21 05:38:52;;;;;;;12.68;6.57;;;;;;;;;;6267672;28;20048;-79
2022/04/21 05:41:56;;;;;;;10.68;6.13;;;;;;;;;;6267878;28;20136;-79
2022/04/21 05:44:58;;;;;;;7.95;5.38;;;;;;;;;;6268148;28;20124;-80
2022/04/21 05:48:02;;;;;;;11.60;5.63;;;;;;;;;;6291724;28;20120;-79
2022/04/21 05:51:05;;;;;;;7.70;5.38;;;;;;;;;;6293658;28;20064;-78
2022/04/21 05:54:07;;;;;;;9.90;6.00;;;;;;;;;;6292596;28;20093;-80
2022/04/21 05:57:09;;;;;;;29.45;11.32;;;;;;;;;;6270041;28;20134;-81
2022/04/21 06:00:11;;;;;;;12.10;6.45;;;;;;;;;;6263955;28;20111;-80
2022/04/21 06:03:13;;;;;;;11.68;6.25;;;;;;;;;;6242749;28;20076;-80
2022/04/21 06:06:15;;;;;;;8.02;5.90;;;;;;;;;;6266436;28;20148;-80
2022/04/21 06:09:17;;;;;;;12.43;6.35;;;;;;;;;;6265721;28;20049;-81
2022/04/21 06:12:18;;;;;;;10.40;5.80;;;;;;;;;;6268293;28;20485;-79
2022/04/21 06:15:20;;;;;;;9.10;5.32;;;;;;;;;;6241001;28;20573;-79
2022/04/21 06:18:23;;;;;;;10.52;5.63;;;;;;;;;;6240981;28;20510;-81
2022/04/21 06:21:25;;;;;;;9.80;5.40;;;;;;;;;;6241392;28;20438;-81
2022/04/21 06:24:27;;;;;;;14.98;5.90;;;;;;;;;;6243589;28;20076;-80
2022/04/21 06:27:28;;;;;;;8.57;5.78;;;;;;;;;;6264641;28;20198;-79
2022/04/21 06:30:31;;;;;;;11.45;5.10;;;;;;;;;;6256496;28;20045;-81
2022/04/21 06:33:33;;;;;;;11.93;4.97;;;;;;;;;;6241432;28;20037;-80
2022/04/21 06:36:34;;;;;;;12.00;6.35;;;;;;;;;;6242585;28;20123;-80
2022/04/21 06:39:36;;;;;;;8.77;5.20;;;;;;;;;;6241225;28;20678;-81
2022/04/21 06:42:41;;;;;;;10.55;5.50;;;;;;;;;;6239621;28;20046;-81
2022/04/21 06:49:03;;;;;;;11.93;5.85;;;;;;;;;;6289334;28;20113;-78
2022/04/21 06:52:05;;;;;;;13.93;5.80;;;;;;;;;;6286833;28;20428;-80
2022/04/21 06:55:07;;;;;;;9.82;5.45;;;;;;;;;;6279499;28;20498;-79
2022/04/21 06:58:09;;;;;;;12.57;5.85;;;;;;;;;;6275605;28;20052;-80
2022/04/21 07:01:10;;;;;;;19.25;6.55;;;;;;;;;;6297603;28;20044;-81
2022/04/21 07:04:14;;;;;;;14.65;5.82;;;;;;;;;;6277222;28;20083;-80
2022/04/21 07:07:15;;;;;;;17.13;6.55;;;;;;;;;;6282880;28;20423;-80
2022/04/21 07:10:18;;;;;;;15.27;7.30;;;;;;;;;;6268644;28;20160;-80
2022/04/21 07:13:20;;;;;;;13.88;7.25;;;;;;;;;;6263910;28;20041;-81
2022/04/21 07:16:22;;;;;;;18.17;7.28;;;;;;;;;;6287585;28;20063;-80
2022/04/21 07:19:24;;;;;;;18.75;10.68;;;;;;;;;;6266430;28;20044;-81
2022/04/21 07:22:26;;;;;;;23.80;9.68;;;;;;;;;;6262681;28;20065;-81
2022/04/21 07:25:28;;;;;;;23.50;9.60;;;;;;;;;;6261338;28;20096;-80
2022/04/21 07:28:30;;;;;;;16.10;7.60;;;;;;;;;;6277603;27;20652;-80
2022/04/21 07:31:32;;;;;;;11.27;4.82;;;;;;;;;;6285924;27;20103;-81
2022/04/21 07:34:34;;;;;;;19.90;5.90;;;;;;;;;;6284600;27;20049;-81
2022/04/21 07:37:37;;;;;;;10.80;4.90;;;;;;;;;;6288653;28;20094;-80
2022/04/21 07:40:41;;;;;;;9.75;4.22;;;;;;;;;;6287110;28;20040;-80
2022/04/21 07:43:44;;;;;;;5.85;3.50;;;;;;;;;;6290429;28;20055;-80
2022/04/21 07:46:45;;;;;;;5.63;3.30;;;;;;;;;;6287526;28;20456;-78
2022/04/21 07:49:48;;;;;;;5.80;3.10;;;;;;;;;;6289413;28;20055;-79
2022/04/21 07:56:10;;;;;;;5.78;3.05;;;;;;;;;;6265365;28;20623;-80
2022/04/21 07:59:11;;;;;;;5.55;2.95;;;;;;;;;;6278501;28;20103;-78
2022/04/21 08:02:16;;;;;;;6.85;2.80;;;;;;;;;;6263998;28;20083;-80
2022/04/21 08:05:19;;;;;;;4.10;2.83;;;;;;;;;;6266031;28;20049;-79
2022/04/21 08:08:21;;;;;;;;;;;;;;;;;;6264320;28;20053;-80
2022/04/21 08:11:22;;;;;;;5.38;2.70;;;;;;;;;;6265020;28;19964;-79
2022/04/21 08:14:25;;;;;;;5.03;2.80;;;;;;;;;;6264205;28;20749;-80
2022/04/21 08:17:26;;;;;;;6.63;3.10;;;;;;;;;;6240959;28;20072;-81
2022/04/21 08:20:30;;;;;;;4.97;2.63;;;;;;;;;;6259748;28;20650;-81
2022/04/21 08:23:36;;;;;;;5.35;2.85;;;;;;;;;;6264812;28;20053;-80
2022/04/21 08:33:43;;;;;;;4.93;2.80;;;;;;;;;;6282310;27;20048;-80
2022/04/21 08:36:44;;;;;;;3.75;2.65;;;;;;;;;;6284637;28;20119;-81
2022/04/21 08:39:47;;;;;;;8.13;4.38;;;;;;;;;;6285797;28;20056;-79
2022/04/21 08:42:52;;;;;;;6.78;3.65;;;;;;;;;;6263944;28;20150;-79
2022/04/21 08:45:55;;;;;;;6.25;3.22;;;;;;;;;;6266365;28;20075;-81
2022/04/21 08:49:00;;;;;;;4.93;3.30;;;;;;;;;;6289256;28;20044;-79
2022/04/21 08:52:02;;;;;;;7.35;3.75;;;;;;;;;;6286804;28;20079;-79
2022/04/21 08:55:04;;;;;;;5.85;3.50;;;;;;;;;;6275060;28;20048;-80
2022/04/21 08:58:06;;;;;;;6.10;3.45;;;;;;;;;;6272173;28;20068;-79
2022/04/21 09:01:07;;;;;;;6.40;3.20;;;;;;;;;;6248965;28;20589;-78
2022/04/21 09:04:09;;;;;;;6.95;3.47;;;;;;;;;;6276403;28;20045;-78
2022/04/21 09:07:17;;;;;;;7.03;3.35;;;;;;;;;;6282677;28;20054;-79
2022/04/21 09:10:20;;;;;;;5.90;2.83;;;;;;;;;;6285033;27;20056;-79
2022/04/21 09:13:30;;;;;;;5.57;2.97;;;;;;;;;;6287236;28;20185;-80
2022/04/21 09:16:36;;;;;;;5.07;2.90;;;;;;;;;;6267971;28;20773;-78
2022/04/21 09:19:55;;;;;;;4.45;2.75;;;;;;;;;;6264120;28;20053;-77
2022/04/21 09:23:00;;;;;;;4.20;2.10;;;;;;;;;;6269442;28;20131;-77
2022/04/21 09:26:13;;;;;;;6.68;2.85;;;;;;;;;;6270248;28;20063;-77
2022/04/21 09:29:25;;;;;;;3.55;2.38;;;;;;;;;;6269585;28;20048;-78
2022/04/21 09:32:27;;;;;;;4.07;2.80;;;;;;;;;;6267591;28;20127;-77
2022/04/21 09:35:33;;;;;;;4.53;2.67;;;;;;;;;;6282219;28;20489;-78
2022/04/21 09:38:37;;;;;;;4.10;2.50;;;;;;;;;;6287906;28;20400;-78
2022/04/21 09:41:39;;;;;;;3.35;2.10;;;;;;;;;;6287367;28;20384;-79
2022/04/21 09:48:03;;;;;;;3.97;2.35;;;;;;;;;;6282237;28;20096;-78
2022/04/21 09:51:12;;;;;;;3.95;2.47;;;;;;;;;;6282782;28;20082;-79
2022/04/21 09:54:16;;;;;;;4.03;2.97;;;;;;;;;;6278046;28;20156;-77
2022/04/21 09:57:38;;;;;;;4.32;2.45;;;;;;;;;;6278579;28;20049;-78
2022/04/21 10:00:41;;;;;;;4.90;2.40;;;;;;;;;;6272483;28;20111;-79
2022/04/21 10:03:44;;;;;;;2.78;2.30;;;;;;;;;;6260714;28;20182;-78
2022/04/21 10:06:47;;;;;;;2.83;2.40;;;;;;;;;;6261863;28;20053;-77
2022/04/21 10:09:49;;;;;;;;;;;;;;;;;;6257555;28;20041;-77
2022/04/21 10:12:51;;;;;;;3.67;2.38;;;;;;;;;;6266188;28;19924;-78
2022/04/21 10:15:53;;;;;;;6.03;2.75;;;;;;;;;;6265008;28;20171;-78
2022/04/21 10:18:57;;;;;;;3.15;2.35;;;;;;;;;;6266013;28;20129;-78
2022/04/21 10:22:02;;;;;;;10.98;4.30;;;;;;;;;;6263486;28;20041;-77
2022/04/21 10:25:06;;;;;;;16.83;6.20;;;;;;;;;;6264755;28;20091;-78
2022/04/21 10:28:36;;;;;;;6.88;2.80;;;;;;;;;;6265193;28;20065;-78
2022/04/21 10:32:00;;;;;;;3.20;2.20;;;;;;;;;;6261230;28;20079;-79
2022/04/21 10:35:16;;;;;;;19.88;6.68;;;;;;;;;;6268103;28;20051;-78
2022/04/21 10:38:18;;;;;;;4.22;2.30;;;;;;;;;;6268252;28;20143;-78
2022/04/21 10:41:35;;;;;;;3.05;2.30;;;;;;;;;;6273452;28;20052;-78
2022/04/21 10:44:42;;;;;;;15.82;5.40;;;;;;;;;;6270304;28;20106;-78
2022/04/21 10:48:07;;;;;;;7.80;3.20;;;;;;;;;;6288157;28;20082;-78
2022/04/21 10:51:11;;;;;;;53.80;14.02;;;;;;;;;;6292972;28;20133;-79
2022/04/21 10:57:34;;;;;;;3.50;2.15;;;;;;;;;;6283122;28;20549;-79
2022/04/21 11:00:35;;;;;;;4.35;2.70;;;;;;;;;;6289173;28;20076;-80
2022/04/21 11:03:38;;;;;;;4.00;2.70;;;;;;;;;;6274683;28;20045;-81
2022/04/21 11:06:45;;;;;;;3.28;2.25;;;;;;;;;;6289442;28;20498;-79
2022/04/21 11:09:50;;;;;;;3.70;2.70;;;;;;;;;;6275121;28;20052;-81
2022/04/21 11:13:16;;;;;;;3.33;2.50;;;;;;;;;;6285116;28;20055;-79
2022/04/21 11:16:48;;;;;;;2.92;2.53;;;;;;;;;;6282906;28;20056;-79
2022/04/21 11:19:51;;;;;;;3.03;2.20;;;;;;;;;;6286708;28;20052;-79
2022/04/21 11:22:53;;;;;;;;;;;;;;;;;;6284357;28;20117;-79
2022/04/21 11:26:03;;;;;;;4.25;2.55;;;;;;;;;;6288601;27;19928;-79
2022/04/21 11:29:05;;;;;;;2.83;2.47;;;;;;;;;;6291515;27;20116;-78
2022/04/21 11:32:07;;;;;;;5.65;2.70;;;;;;;;;;6278861;28;20064;-80
2022/04/21 11:35:10;;;;;;;3.13;2.33;;;;;;;;;;6274533;28;20057;-82
2022/04/21 11:38:13;;;;;;;2.00;1.80;;;;;;;;;;6275949;28;20076;-79
2022/04/21 11:41:15;;;;;;;2.25;1.80;;;;;;;;;;6270886;28;20151;-80
2022/04/21 11:44:21;;;;;;;2.92;2.20;;;;;;;;;;6274606;28;20053;-80
2022/04/21 11:47:23;;;;;;;4.07;2.22;;;;;;;;;;6289463;28;20622;-81
2022/04/21 11:50:29;;;;;;;4.07;2.50;;;;;;;;;;6296704;28;20045;-81
2022/04/21 11:53:40;;;;;;;3.80;2.35;;;;;;;;;;6298479;28;20043;-80
2022/04/21 11:56:51;;;;;;;2.33;2.13;;;;;;;;;;6278700;28;20045;-81
2022/04/21 12:00:01;;;;;;;3.47;2.53;;;;;;;;;;6298316;28;20040;-81
2022/04/21 12:06:37;;;;;;;3.22;2.25;;;;;;;;;;6274245;28;20095;-80
2022/04/21 12:09:40;;;;;;;3.20;2.58;;;;;;;;;;6273439;28;20040;-81
2022/04/21 12:12:43;;;;;;;3.20;2.30;;;;;;;;;;6274397;28;20041;-81
2022/04/21 12:15:50;;;;;;;4.40;2.40;;;;;;;;;;6278053;28;20044;-80
2022/04/21 12:18:52;;;;;;;3.00;2.42;;;;;;;;;;6311758;28;20029;-81
2022/04/21 12:22:02;;;;;;;3.42;2.80;;;;;;;;;;6311750;28;20036;-82
2022/04/21 12:25:11;;;;;;;5.03;2.78;;;;;;;;;;6326380;28;20037;-81
2022/04/21 12:28:12;;;;;;;3.63;3.00;;;;;;;;;;6280947;28;20052;-81
2022/04/21 12:31:19;;;;;;;3.33;2.40;;;;;;;;;;6277168;28;20053;-82
2022/04/21 12:34:24;;;;;;;3.85;2.70;;;;;;;;;;6284507;28;20053;-80
2022/04/21 12:37:28;;;;;;;6.00;2.90;;;;;;;;;;6299593;27;20065;-80
2022/04/21 12:40:31;;;;;;;3.45;2.88;;;;;;;;;;6277503;28;20048;-81
2022/04/21 12:43:33;;;;;;;2.78;2.40;;;;;;;;;;6287243;27;20045;-80
2022/04/21 12:46:34;;;;;;;4.90;3.03;;;;;;;;;;6285395;28;20063;-80
2022/04/21 12:50:08;;;;;;;4.57;2.90;;;;;;;;;;6296168;27;20040;-80
2022/04/21 12:53:10;;;;;;;2.78;2.40;;;;;;;;;;6287967;28;20623;-80
2022/04/21 12:56:13;;;;;;;3.67;2.78;;;;;;;;;;6310358;28;20056;-81
2022/04/21 12:59:15;;;;;;;3.72;3.00;;;;;;;;;;6311786;28;20052;-81
2022/04/21 13:02:18;;;;;;;8.60;3.05;;;;;;;;;;6280730;28;20041;-81
2022/04/21 13:05:20;;;;;;;4.28;2.63;;;;;;;;;;6269579;28;20083;-80
2022/04/21 13:08:24;;;;;;;3.50;2.30;;;;;;;;;;6267825;28;20122;-80
2022/04/21 13:11:26;;;;;;;5.25;2.67;;;;;;;;;;6243952;28;20069;-82
2022/04/21 13:14:28;;;;;;;3.15;2.55;;;;;;;;;;6242648;28;20045;-81
2022/04/21 13:17:30;;;;;;;2.90;2.47;;;;;;;;;;6238725;28;20101;-80
2022/04/21 13:23:52;;;;;;;3.15;2.40;;;;;;;;;;6294108;28;20047;-81
2022/04/21 13:26:56;;;;;;;7.00;2.40;;;;;;;;;;6295149;28;20505;-81
2022/04/21 13:29:58;;;;;;;2.50;2.30;;;;;;;;;;6268244;28;20439;-79
2022/04/21 13:33:43;;;;;;;4.88;2.75;;;;;;;;;;6269045;28;20054;-81
2022/04/21 13:36:26;;;;;;;3.33;2.53;;;;;;;;;;6262037;28;20045;-80
2022/04/21 13:39:38;;;;;;;3.20;2.40;;;;;;;;;;6283230;28;20098;-80
2022/04/21 13:42:41;;;;;;;5.32;2.78;;;;;;;;;;6281993;28;20385;-80
2022/04/21 13:45:42;;;;;;;6.25;2.90;;;;;;;;;;6289006;28;20123;-80
2022/04/21 13:48:44;;;;;;;3.20;2.90;;;;;;;;;;6296301;28;20048;-79
2022/04/21 13:51:46;;;;;;;4.85;2.70;;;;;;;;;;6297012;28;20053;-81
2022/04/21 13:54:54;;;;;;;4.45;2.70;;;;;;;;;;6281702;28;20048;-81
2022/04/21 13:57:57;;;;;;;3.85;2.60;;;;;;;;;;6275826;28;20060;-81
2022/04/21 14:00:59;;;;;;;3.83;2.72;;;;;;;;;;6289865;28;20170;-83
2022/04/21 14:04:01;;;;;;;4.90;2.90;;;;;;;;;;6295310;28;20072;-80
2022/04/21 14:07:02;;;;;;;4.00;3.28;;;;;;;;;;6289890;28;20052;-81
2022/04/21 14:10:04;;;;;;;3.50;3.03;;;;;;;;;;6285640;28;20082;-80
2022/04/21 14:13:06;;;;;;;5.60;3.25;;;;;;;;;;6293591;27;20049;-80
2022/04/21 14:16:08;;;;;;;5.15;3.30;;;;;;;;;;6290839;27;20053;-81
2022/04/21 14:19:30;;;;;;;5.93;3.45;;;;;;;;;;6295495;27;20424;-81
2022/04/21 14:22:32;;;;;;;6.57;3.90;;;;;;;;;;6301975;27;20100;-81
2022/04/21 14:25:33;;;;;;;6.70;4.50;;;;;;;;;;6281825;28;20071;-80
2022/04/21 14:28:38;;;;;;;6.25;4.15;;;;;;;;;;6292141;27;20114;-80
2022/04/21 14:31:39;;;;;;;8.90;5.00;;;;;;;;;;6293229;27;20481;-81
2022/04/21 14:34:41;;;;;;;6.13;4.30;;;;;;;;;;6293597;27;20048;-80
2022/04/21 14:44:23;;;;;;;6.47;4.50;;;;;;;;;;6286661;27;20075;-80
2022/04/21 14:47:26;;;;;;;6.55;4.65;;;;;;;;;;6287176;27;20044;-80
2022/04/21 14:50:28;;;;;;;;;;;;;;;;;;6281121;28;20117;-81
2022/04/21 14:53:29;;;;;;;5.00;3.60;;;;;;;;;;6296283;28;19946;-80
2022/04/21 14:56:33;;;;;;;7.45;4.00;;;;;;;;;;6275873;28;20044;-80
2022/04/21 14:59:35;;;;;;;4.88;3.70;;;;;;;;;;6300181;27;20044;-80
2022/04/21 15:02:37;;;;;;;6.80;3.85;;;;;;;;;;6279674;28;20045;-80
2022/04/21 15:05:40;;;;;;;5.28;3.55;;;;;;;;;;6292962;28;20070;-80
2022/04/21 15:08:42;;;;;;;6.85;4.07;;;;;;;;;;6288277;28;20064;-81
2022/04/21 15:11:45;;;;;;;4.18;3.33;;;;;;;;;;6287380;27;20115;-79
2022/04/21 15:14:46;;;;;;;4.05;3.30;;;;;;;;;;6279270;28;20071;-79
2022/04/21 15:17:48;;;;;;;5.10;3.40;;;;;;;;;;6291942;27;20064;-80
2022/04/21 15:21:05;;;;;;;7.90;3.80;;;;;;;;;;6289232;28;20048;-80
2022/04/21 15:24:07;;;;;;;6.38;3.60;;;;;;;;;;6289093;28;20049;-80
2022/04/21 15:27:09;;;;;;;5.15;3.92;;;;;;;;;;6288123;28;20145;-81
2022/04/21 15:30:11;;;;;;;5.82;3.08;;;;;;;;;;6331251;28;20573;-80
2022/04/21 15:33:13;;;;;;;4.18;3.10;;;;;;;;;;6271575;28;20047;-82
2022/04/21 15:36:15;;;;;;;3.35;2.72;;;;;;;;;;6270361;28;20057;-82
2022/04/21 15:39:18;;;;;;;5.18;3.03;;;;;;;;;;6268048;28;20547;-83
2022/04/21 15:42:20;;;;;;;7.30;2.60;;;;;;;;;;6268011;28;20098;-81
2022/04/21 15:45:22;;;;;;;5.55;3.53;;;;;;;;;;6269774;28;20135;-84
2022/04/21 15:48:23;;;;;;;3.40;2.60;;;;;;;;;;6270100;28;20137;-81
2022/04/21 15:51:28;;;;;;;4.57;2.90;;;;;;;;;;6270439;28;20045;-79
2022/04/21 16:01:00;;;;;;;4.32;2.67;;;;;;;;;;6290507;28;20199;-78
2022/04/21 16:04:02;;;;;;;4.47;2.40;;;;;;;;;;6285796;28;20048;-78
2022/04/21 16:07:04;;;;;;;5.43;3.10;;;;;;;;;;6292527;28;20717;-79
2022/04/21 16:10:06;;;;;;;5.78;2.78;;;;;;;;;;6272100;28;20045;-79
2022/04/21 16:13:09;;;;;;;3.30;2.75;;;;;;;;;;6269637;28;20044;-80
2022/04/21 16:16:10;;;;;;;5.15;3.05;;;;;;;;;;6289692;27;20051;-79
2022/04/21 16:19:12;;;;;;;3.58;2.80;;;;;;;;;;6294120;27;20041;-80
2022/04/21 16:22:18;;;;;;;4.35;2.65;;;;;;;;;;6295339;27;20049;-80
2022/04/21 16:25:20;;;;;;;3.92;2.67;;;;;;;;;;6291229;28;20044;-80
2022/04/21 16:28:22;;;;;;;5.72;3.00;;;;;;;;;;6286694;28;20110;-79
2022/04/21 16:31:24;;;;;;;5.88;2.60;;;;;;;;;;6295499;27;20048;-80
2022/04/21 16:34:27;;;;;;;3.58;3.00;;;;;;;;;;6285805;27;20051;-80
2022/04/21 16:37:28;;;;;;;4.72;2.70;;;;;;;;;;6291936;27;20131;-81
2022/04/21 16:40:30;;;;;;;10.88;2.80;;;;;;;;;;6284687;28;20079;-79
2022/04/21 16:43:32;;;;;;;3.30;2.47;;;;;;;;;;6287790;27;20068;-79
2022/04/21 16:46:33;;;;;;;4.05;2.95;;;;;;;;;;6281864;28;20498;-79
2022/04/21 16:49:35;;;;;;;4.15;2.50;;;;;;;;;;6290955;28;20477;-78
2022/04/21 16:52:37;;;;;;;4.43;2.80;;;;;;;;;;6290504;28;20068;-80
2022/04/21 16:55:39;;;;;;;5.70;2.80;;;;;;;;;;6300551;28;20242;-79
2022/04/21 16:58:41;;;;;;;5.18;3.20;;;;;;;;;;6298913;28;20063;-80
2022/04/21 17:05:04;;;;;;;9.00;3.13;;;;;;;;;;6269113;28;20045;-82
2022/04/21 17:08:05;;;;;;;16.47;7.03;;;;;;;;;;6284823;28;20041;-80
2022/04/21 17:11:09;;;;;;;4.32;2.63;;;;;;;;;;6285482;28;20450;-80
2022/04/21 17:14:11;;;;;;;4.78;2.95;;;;;;;;;;6292244;28;20493;-81
2022/04/21 17:17:13;;;;;;;7.25;3.15;;;;;;;;;;6291884;28;20040;-79
2022/04/21 17:20:15;;;;;;;7.63;3.55;;;;;;;;;;6289840;28;20056;-81
2022/04/21 17:23:16;;;;;;;3.78;2.90;;;;;;;;;;6293943;28;20248;-81
2022/04/21 17:26:18;;;;;;;7.43;3.38;;;;;;;;;;6280481;28;20049;-79
2022/04/21 17:29:26;;;;;;;6.88;3.20;;;;;;;;;;6270439;28;20120;-79
2022/04/21 17:32:30;;;;;;;5.93;3.60;;;;;;;;;;6289554;28;20101;-81
2022/04/21 17:35:32;;;;;;;6.90;3.50;;;;;;;;;;6295062;28;20036;-81
2022/04/21 17:38:37;;;;;;;5.22;3.40;;;;;;;;;;6296778;28;20044;-79
2022/04/21 17:41:39;;;;;;;7.45;4.40;;;;;;;;;;6267159;28;20044;-81
2022/04/21 17:44:44;;;;;;;4.90;3.20;;;;;;;;;;6271883;28;20056;-79
2022/04/21 17:47:48;;;;;;;5.82;3.70;;;;;;;;;;6250804;28;20040;-80
2022/04/21 17:50:51;;;;;;;7.10;3.67;;;;;;;;;;6266457;28;20041;-80
2022/04/21 17:53:56;;;;;;;5.70;3.33;;;;;;;;;;6273121;28;20363;-81
2022/04/21 17:56:58;;;;;;;5.15;3.63;;;;;;;;;;6282413;28;20045;-82
2022/04/21 17:59:59;;;;;;;6.63;4.00;;;;;;;;;;6311460;28;20145;-81
2022/04/21 18:03:01;;;;;;;8.43;4.60;;;;;;;;;;6268034;28;20053;-79
2022/04/21 18:06:03;;;;;;;6.90;3.72;;;;;;;;;;6279554;28;20049;-81
2022/04/21 18:09:05;;;;;;;11.43;3.70;;;;;;;;;;6268127;28;20099;-81
2022/04/21 18:12:09;;;;;;;4.87;3.67;;;;;;;;;;6290215;28;20163;-81
2022/04/21 18:15:11;;;;;;;5.25;3.28;;;;;;;;;;6289109;28;20060;-80
2022/04/21 18:18:13;;;;;;;7.82;3.80;;;;;;;;;;6265757;28;20080;-81
2022/04/21 18:21:15;;;;;;;6.05;3.88;;;;;;;;;;6264112;28;20106;-81
2022/04/21 18:24:17;;;;;;;5.95;3.85;;;;;;;;;;6265691;28;20064;-82
2022/04/21 18:27:19;;;;;;;7.10;3.65;;;;;;;;;;6240937;28;20152;-82
2022/04/21 18:30:21;;;;;;;4.55;3.35;;;;;;;;;;6263658;28;20071;-82
2022/04/21 18:33:24;;;;;;;4.38;3.15;;;;;;;;;;6291189;28;20055;-82
2022/04/21 18:36:27;;;;;;;6.72;4.53;;;;;;;;;;6292164;28;20036;-83
2022/04/21 18:39:33;;;;;;;6.38;3.40;;;;;;;;;;6266942;28;20897;-82
2022/04/21 18:42:35;;;;;;;7.88;3.85;;;;;;;;;;6248210;28;20044;-83
2022/04/21 18:45:37;;;;;;;5.10;3.40;;;;;;;;;;6266574;28;20136;-82
2022/04/21 18:48:38;;;;;;;5.30;3.30;;;;;;;;;;6265368;28;20087;-82
2022/04/21 18:51:41;;;;;;;5.25;3.60;;;;;;;;;;6284299;28;20122;-81
2022/04/21 18:54:43;;;;;;;6.15;3.70;;;;;;;;;;6265359;28;20098;-82
2022/04/21 19:01:08;;;;;;;5.35;3.83;;;;;;;;;;6281611;28;20088;-82
2022/04/21 19:04:10;;;;;;;7.05;4.20;;;;;;;;;;6268118;28;20120;-80
2022/04/21 19:07:12;;;;;;;5.72;3.67;;;;;;;;;;6268248;28;20049;-80
2022/04/21 19:10:13;;;;;;;7.65;4.20;;;;;;;;;;6246581;28;20873;-79
2022/04/21 19:13:15;;;;;;;6.50;4.38;;;;;;;;;;6250539;28;20493;-80
2022/04/21 19:16:17;;;;;;;7.00;4.25;;;;;;;;;;6281866;28;20075;-80
2022/04/21 19:19:19;;;;;;;7.07;4.22;;;;;;;;;;6268233;28;20132;-81
2022/04/21 19:22:21;;;;;;;8.13;4.30;;;;;;;;;;6264061;28;20060;-81
2022/04/21 19:25:24;;;;;;;7.68;4.38;;;;;;;;;;6283071;28;20056;-82
2022/04/21 19:28:26;;;;;;;;;;;;;;;;;;6267885;28;20063;-81
2022/04/21 19:31:44;;;;;;;5.43;3.97;;;;;;;;;;6278687;28;20336;-81